CPS8 weather

Parry Sound/Huron Island Seaplane Base
Ontario, Canada

Public forecast

Using degrees Celsius for public forecast. Weather courtesy of forecast.io.

Closest aviation weather report (METAR) to Parry Sound/Huron Island Seaplane Base

Closest report is Muskoka Airport, 36.2 nm (67.1 km) ESE. Retrieved 2019/12/15 07:33 UTC (9 minutes ago):

CYQA 150733Z AUTO 29013G21KT 9SM -SN OVC007 M00/M01 A2941 RMK SLP972

Closest aviation forecast (TAF) to Parry Sound/Huron Island Seaplane Base

Forecast is more than 6 hours old.

Closest forecast is Muskoka Airport, 36.2 nm (67.1 km) ESE. Retrieved 2019/12/14 20:00 UTC (12 hours ago):

TAF CYQA 141954Z 1420/1503 33008KT 1SM -SN BKN003 OVC010 TEMPO 1420/1501 3SM -SN OVC010 FM150100 33010G20KT 3SM -SHSN OVC005 TEMPO 1501/1503 P6SM NSW OVC015 RMK FCST BASED ON AUTO OBS NXT FCST WILL BE ISSUED AT 151245Z